Time;durP1;ratioP1;P1;durP2;ratioP2;P2;SDS_P1;SDS_P2;PMS_P1;PMS_P2;Temp;Humidity;BMP_temperature;BMP_pressure;BME280_temperature;BME280_humidity;BME280_pressure;Samples;Min_cycle;Max_cycle;Signal;HPM_P1;HPM_P2
2023/04/02 00:01:21;;;;;;;5.45;1.20;;;;;;;;;;4985230;28;20535;-80
2023/04/02 00:03:58;;;;;;;1.58;0.73;;;;;;;;;;4983734;28;20103;-80
2023/04/02 00:06:54;;;;;;;2.78;0.80;;;;;;;;;;4983207;28;20137;-80
2023/04/02 00:09:34;;;;;;;3.50;0.98;;;;;;;;;;4980332;28;20038;-80
2023/04/02 00:12:17;;;;;;;3.22;0.80;;;;;;;;;;4984274;28;20057;-80
2023/04/02 00:14:54;;;;;;;1.13;0.65;;;;;;;;;;4984461;28;20107;-80
2023/04/02 00:17:28;;;;;;;3.17;0.90;;;;;;;;;;4982795;28;20046;-80
2023/04/02 00:20:06;;;;;;;4.20;0.90;;;;;;;;;;4983545;28;20566;-80
2023/04/02 00:22:33;;;;;;;4.63;1.00;;;;;;;;;;4984285;28;20053;-80
2023/04/02 00:25:12;;;;;;;2.90;0.77;;;;;;;;;;4980937;28;20042;-80
2023/04/02 00:27:40;;;;;;;6.03;0.90;;;;;;;;;;4985200;28;20046;-81
2023/04/02 00:30:09;;;;;;;1.75;0.70;;;;;;;;;;4982136;28;20119;-82
2023/04/02 00:32:37;;;;;;;4.95;1.00;;;;;;;;;;4984423;28;20042;-82
2023/04/02 00:35:29;;;;;;;3.42;0.73;;;;;;;;;;4955363;28;20114;-82
2023/04/02 00:37:57;;;;;;;5.32;0.70;;;;;;;;;;4966572;28;20053;-83
2023/04/02 00:40:28;;;;;;;3.33;0.60;;;;;;;;;;4982889;28;20042;-82
2023/04/02 00:42:58;;;;;;;4.80;1.05;;;;;;;;;;4983383;28;20046;-83
2023/04/02 00:45:49;;;;;;;2.25;1.00;;;;;;;;;;4980993;28;20038;-84
2023/04/02 00:48:44;;;;;;;2.55;0.80;;;;;;;;;;4979648;28;20043;-83
2023/04/02 00:51:35;;;;;;;2.38;0.60;;;;;;;;;;4967816;28;20035;-83
2023/04/02 00:55:07;;;;;;;2.90;0.70;;;;;;;;;;4982143;28;20046;-84
2023/04/02 00:58:55;;;;;;;3.10;0.68;;;;;;;;;;5043733;28;20095;-84
2023/04/02 01:02:21;;;;;;;6.38;1.05;;;;;;;;;;5032996;28;20045;-84
2023/04/02 01:15:50;;;;;;;;;;;;;;;;;;4940490;29;20126;-85
2023/04/02 01:18:57;;;;;;;2.53;0.85;;;;;;;;;;4940208;29;19942;-80
2023/04/02 01:21:54;;;;;;;0.95;0.50;;;;;;;;;;5017234;28;20049;-80
2023/04/02 01:24:45;;;;;;;1.50;0.60;;;;;;;;;;5008478;28;20125;-80
2023/04/02 01:27:18;;;;;;;3.17;0.80;;;;;;;;;;5012987;28;20076;-80
2023/04/02 01:29:54;;;;;;;2.08;0.80;;;;;;;;;;5004316;28;20053;-80
2023/04/02 01:32:26;;;;;;;3.97;1.00;;;;;;;;;;5018470;28;20046;-81
2023/04/02 01:35:00;;;;;;;3.47;0.90;;;;;;;;;;5018290;28;20058;-80
2023/04/02 01:37:31;;;;;;;3.17;1.08;;;;;;;;;;5008974;28;20053;-80
2023/04/02 01:40:42;;;;;;;9.02;0.93;;;;;;;;;;5017912;28;20519;-80
2023/04/02 01:43:12;;;;;;;7.90;1.10;;;;;;;;;;4936864;29;20426;-80
2023/04/02 01:45:39;;;;;;;1.75;0.57;;;;;;;;;;4934968;29;20058;-81
2023/04/02 01:48:16;;;;;;;2.25;0.80;;;;;;;;;;4979596;28;20054;-80
2023/04/02 01:50:51;;;;;;;2.90;0.73;;;;;;;;;;4968805;28;20133;-80
2023/04/02 01:53:21;;;;;;;4.13;0.80;;;;;;;;;;4961664;28;20440;-80
2023/04/02 01:55:56;;;;;;;2.25;1.02;;;;;;;;;;4970299;28;20056;-80
2023/04/02 01:58:26;;;;;;;5.00;1.02;;;;;;;;;;4980267;28;20078;-81
2023/04/02 02:01:21;;;;;;;1.50;0.85;;;;;;;;;;4973268;28;20051;-81
2023/04/02 02:03:57;;;;;;;4.95;0.90;;;;;;;;;;4978409;28;20057;-80
2023/04/02 02:06:25;;;;;;;3.17;0.70;;;;;;;;;;5002999;28;20034;-80
2023/04/02 02:09:03;;;;;;;5.53;0.75;;;;;;;;;;4970625;28;20416;-80
2023/04/02 02:11:32;;;;;;;3.00;0.85;;;;;;;;;;4971463;28;20412;-80
2023/04/02 02:14:27;;;;;;;2.35;1.00;;;;;;;;;;4987730;28;20043;-80
2023/04/02 02:17:03;;;;;;;4.35;1.02;;;;;;;;;;4987493;28;20039;-80
2023/04/02 02:19:33;;;;;;;4.68;0.77;;;;;;;;;;4987669;28;20049;-80
2023/04/02 02:22:19;;;;;;;3.33;1.20;;;;;;;;;;5001618;28;20543;-80
2023/04/02 02:24:47;;;;;;;1.23;0.47;;;;;;;;;;5003390;28;20050;-80
2023/04/02 02:27:21;;;;;;;5.00;1.08;;;;;;;;;;4962501;28;20069;-80
2023/04/02 02:29:59;;;;;;;6.95;0.90;;;;;;;;;;4968472;28;20164;-80
2023/04/02 02:33:15;;;;;;;3.40;0.90;;;;;;;;;;4986006;28;20050;-80
2023/04/02 02:35:59;;;;;;;3.00;0.90;;;;;;;;;;4973282;28;20046;-80
2023/04/02 02:38:47;;;;;;;2.40;0.55;;;;;;;;;;4986933;28;20116;-80
2023/04/02 02:41:41;;;;;;;2.42;0.70;;;;;;;;;;4984978;28;20162;-80
2023/04/02 02:44:09;;;;;;;3.35;0.82;;;;;;;;;;5004181;28;20518;-80
2023/04/02 02:46:42;;;;;;;1.85;0.77;;;;;;;;;;4988935;28;20196;-80
2023/04/02 02:49:40;;;;;;;2.40;0.80;;;;;;;;;;4988006;28;20042;-80
2023/04/02 02:52:09;;;;;;;1.77;0.70;;;;;;;;;;4988676;28;20043;-80
2023/04/02 02:54:53;;;;;;;2.70;0.73;;;;;;;;;;4967687;28;20495;-80
2023/04/02 02:57:34;;;;;;;2.67;0.82;;;;;;;;;;4985467;28;20062;-80
2023/04/02 03:00:32;;;;;;;4.82;0.95;;;;;;;;;;5000608;28;20107;-80
2023/04/02 03:03:09;;;;;;;5.93;1.55;;;;;;;;;;4985017;28;20201;-80
2023/04/02 03:05:38;;;;;;;3.42;0.73;;;;;;;;;;4978811;28;20050;-80
2023/04/02 03:08:30;;;;;;;2.55;0.95;;;;;;;;;;4970204;28;20046;-80
2023/04/02 03:11:20;;;;;;;5.00;0.70;;;;;;;;;;4982046;28;20061;-80
2023/04/02 03:13:53;;;;;;;2.97;0.55;;;;;;;;;;4985495;28;20050;-81
2023/04/02 03:16:33;;;;;;;2.75;0.70;;;;;;;;;;4986875;28;20042;-80
2023/04/02 03:19:10;;;;;;;2.15;0.70;;;;;;;;;;4969546;28;20064;-80
2023/04/02 03:22:26;;;;;;;1.35;0.52;;;;;;;;;;4986129;28;20428;-80
2023/04/02 03:24:59;;;;;;;4.38;0.88;;;;;;;;;;5001538;28;20039;-80
2023/04/02 03:27:40;;;;;;;5.80;0.85;;;;;;;;;;4978226;28;20133;-80
2023/04/02 03:30:31;;;;;;;2.75;0.60;;;;;;;;;;4987299;28;20046;-80
2023/04/02 03:33:08;;;;;;;2.40;0.85;;;;;;;;;;4968897;28;20046;-80
2023/04/02 03:36:14;;;;;;;3.17;1.05;;;;;;;;;;4986644;28;20123;-80
2023/04/02 03:38:47;;;;;;;4.70;0.80;;;;;;;;;;4984095;28;20061;-80
2023/04/02 03:41:32;;;;;;;2.08;0.52;;;;;;;;;;4969791;28;20046;-80
2023/04/02 03:44:44;;;;;;;4.60;0.90;;;;;;;;;;4985133;28;20103;-80
2023/04/02 03:47:33;;;;;;;6.50;0.88;;;;;;;;;;5045330;28;20518;-80
2023/04/02 03:50:16;;;;;;;2.40;0.82;;;;;;;;;;5043854;28;20053;-80
2023/04/02 03:52:43;;;;;;;2.08;0.60;;;;;;;;;;5011554;28;20051;-80
2023/04/02 03:55:22;;;;;;;2.45;0.80;;;;;;;;;;5015590;28;20061;-80
2023/04/02 03:58:00;;;;;;;1.70;0.52;;;;;;;;;;5019513;28;20080;-81
2023/04/02 04:00:37;;;;;;;1.85;0.85;;;;;;;;;;5018426;28;20041;-81
2023/04/02 04:03:12;;;;;;;3.28;0.70;;;;;;;;;;5026200;28;20100;-81
2023/04/02 04:06:01;;;;;;;3.97;0.80;;;;;;;;;;5027310;28;20049;-81
2023/04/02 04:08:57;;;;;;;2.92;0.68;;;;;;;;;;5023439;28;20645;-80
2023/04/02 04:11:53;;;;;;;8.50;1.05;;;;;;;;;;5021042;28;20053;-80
2023/04/02 04:14:30;;;;;;;2.75;0.60;;;;;;;;;;5011454;28;20455;-80
2023/04/02 04:17:14;;;;;;;4.22;0.65;;;;;;;;;;5016887;28;20144;-80
2023/04/02 04:20:06;;;;;;;1.25;0.60;;;;;;;;;;5030453;28;20454;-80
2023/04/02 04:22:35;;;;;;;3.38;0.95;;;;;;;;;;5024341;28;20068;-80
2023/04/02 04:25:29;;;;;;;0.55;0.30;;;;;;;;;;4966980;28;20043;-81
2023/04/02 04:28:26;;;;;;;1.80;1.08;;;;;;;;;;4979557;28;20137;-80
2023/04/02 04:31:08;;;;;;;1.42;0.77;;;;;;;;;;4965390;28;20488;-80
2023/04/02 04:34:41;;;;;;;5.30;0.80;;;;;;;;;;4986565;28;20083;-80
2023/04/02 04:37:24;;;;;;;3.22;1.00;;;;;;;;;;5001480;28;20045;-80
2023/04/02 04:40:25;;;;;;;1.33;0.60;;;;;;;;;;5000704;28;20047;-80
2023/04/02 04:43:02;;;;;;;1.27;0.60;;;;;;;;;;4969138;28;20042;-80
2023/04/02 04:46:03;;;;;;;4.78;0.98;;;;;;;;;;4996145;28;20037;-80
2023/04/02 04:48:49;;;;;;;2.13;0.60;;;;;;;;;;4967462;28;20051;-80
2023/04/02 04:51:58;;;;;;;6.40;1.90;;;;;;;;;;4981947;28;20068;-80
2023/04/02 04:54:31;;;;;;;2.45;0.63;;;;;;;;;;4977931;28;20085;-80
2023/04/02 04:57:36;;;;;;;2.92;0.63;;;;;;;;;;4988761;28;20133;-80
2023/04/02 05:00:24;;;;;;;1.08;0.65;;;;;;;;;;4967215;28;20054;-80
2023/04/02 05:03:05;;;;;;;3.42;0.95;;;;;;;;;;4951004;28;20488;-80
2023/04/02 05:05:37;;;;;;;2.03;0.95;;;;;;;;;;4974512;28;20035;-80
2023/04/02 05:08:15;;;;;;;2.72;0.80;;;;;;;;;;4982636;28;20050;-80
2023/04/02 05:10:55;;;;;;;3.97;0.80;;;;;;;;;;4969618;28;20103;-80
2023/04/02 05:13:33;;;;;;;3.85;1.02;;;;;;;;;;4985607;28;20125;-80
2023/04/02 05:16:35;;;;;;;1.73;0.60;;;;;;;;;;4987198;28;20041;-80
2023/04/02 05:19:35;;;;;;;2.65;1.00;;;;;;;;;;5002275;28;20050;-80
2023/04/02 05:22:11;;;;;;;2.65;0.75;;;;;;;;;;4972263;28;20050;-80
2023/04/02 05:25:14;;;;;;;2.90;0.90;;;;;;;;;;4990054;28;20112;-80
2023/04/02 05:28:07;;;;;;;2.97;0.70;;;;;;;;;;4972265;28;20174;-80
2023/04/02 05:30:45;;;;;;;3.95;0.88;;;;;;;;;;4972353;28;20058;-80
2023/04/02 05:33:29;;;;;;;4.18;0.70;;;;;;;;;;4972914;28;20213;-80
2023/04/02 05:36:10;;;;;;;1.42;0.85;;;;;;;;;;4963190;28;20097;-80
2023/04/02 05:38:49;;;;;;;3.30;0.60;;;;;;;;;;4982743;28;20505;-80
2023/04/02 05:41:26;;;;;;;1.08;0.57;;;;;;;;;;4968085;28;20054;-80
2023/04/02 05:44:23;;;;;;;1.30;0.60;;;;;;;;;;4981603;28;20105;-80
2023/04/02 05:47:11;;;;;;;2.60;0.68;;;;;;;;;;4965781;28;20066;-80
2023/04/02 05:50:03;;;;;;;1.75;1.13;;;;;;;;;;4971136;28;20034;-81
2023/04/02 05:53:22;;;;;;;3.50;0.52;;;;;;;;;;4973580;28;20065;-80
2023/04/02 05:56:04;;;;;;;3.38;0.70;;;;;;;;;;4983139;28;20773;-81
2023/04/02 05:58:49;;;;;;;2.47;0.65;;;;;;;;;;4965628;28;20133;-80
2023/04/02 06:01:23;;;;;;;4.28;0.52;;;;;;;;;;4984616;28;20458;-81
2023/04/02 06:04:24;;;;;;;0.95;0.45;;;;;;;;;;5000902;28;20046;-81
2023/04/02 06:06:57;;;;;;;2.63;0.82;;;;;;;;;;4987208;28;20042;-80
2023/04/02 06:09:44;;;;;;;3.30;1.08;;;;;;;;;;4948578;28;20045;-80
2023/04/02 06:12:14;;;;;;;6.65;0.90;;;;;;;;;;4969746;28;20054;-80
2023/04/02 06:14:47;;;;;;;1.35;0.60;;;;;;;;;;4974240;28;20070;-81
2023/04/02 06:17:17;;;;;;;2.15;0.65;;;;;;;;;;4968736;28;20046;-81
2023/04/02 06:19:46;;;;;;;0.98;0.50;;;;;;;;;;4972769;28;20122;-80
2023/04/02 06:22:20;;;;;;;1.80;0.60;;;;;;;;;;4986396;28;20126;-80
2023/04/02 06:24:57;;;;;;;7.78;0.77;;;;;;;;;;4986758;28;20042;-80
2023/04/02 06:27:26;;;;;;;0.77;0.50;;;;;;;;;;4982328;28;20065;-80
2023/04/02 06:30:32;;;;;;;1.50;0.63;;;;;;;;;;4980118;28;20031;-80
2023/04/02 06:33:05;;;;;;;4.05;1.27;;;;;;;;;;5001774;28;20039;-80
2023/04/02 06:38:35;;;;;;;2.85;0.55;;;;;;;;;;4987423;28;20030;-80
2023/04/02 06:41:11;;;;;;;2.42;0.75;;;;;;;;;;4969441;28;20066;-80
2023/04/02 06:44:10;;;;;;;3.10;0.52;;;;;;;;;;4986866;28;20549;-80
2023/04/02 06:47:28;;;;;;;1.17;0.63;;;;;;;;;;4986742;28;20031;-80
2023/04/02 06:50:53;;;;;;;7.00;0.70;;;;;;;;;;4987529;28;20058;-81
2023/04/02 06:53:47;;;;;;;2.28;0.73;;;;;;;;;;5001779;28;20095;-80
2023/04/02 06:56:37;;;;;;;4.38;0.85;;;;;;;;;;4969036;28;20050;-80
2023/04/02 06:59:06;;;;;;;3.85;0.80;;;;;;;;;;4969890;28;20042;-80
2023/04/02 07:01:57;;;;;;;0.75;0.43;;;;;;;;;;4971388;28;20041;-80
2023/04/02 07:04:26;;;;;;;3.88;1.35;;;;;;;;;;4970460;28;20066;-80
2023/04/02 07:06:59;;;;;;;3.13;0.90;;;;;;;;;;4982954;28;20054;-80
2023/04/02 07:09:29;;;;;;;1.35;0.68;;;;;;;;;;4964350;28;20080;-80
2023/04/02 07:12:24;;;;;;;3.80;0.73;;;;;;;;;;4986827;28;20030;-80
2023/04/02 07:14:53;;;;;;;0.73;0.55;;;;;;;;;;5001567;28;20125;-80
2023/04/02 07:17:21;;;;;;;2.80;0.40;;;;;;;;;;4967759;28;20087;-80
2023/04/02 07:19:49;;;;;;;3.95;0.60;;;;;;;;;;4971123;28;20064;-80
2023/04/02 07:22:19;;;;;;;2.78;0.50;;;;;;;;;;4952757;28;20058;-80
2023/04/02 07:24:55;;;;;;;2.55;0.63;;;;;;;;;;4979468;28;20046;-80
2023/04/02 07:27:32;;;;;;;2.15;0.75;;;;;;;;;;4981975;28;20041;-81
2023/04/02 07:29:59;;;;;;;1.00;0.40;;;;;;;;;;4986114;28;20153;-80
2023/04/02 07:32:27;;;;;;;2.05;0.55;;;;;;;;;;4984630;28;20034;-81
2023/04/02 07:34:59;;;;;;;1.67;0.30;;;;;;;;;;4987321;28;20166;-80
2023/04/02 07:37:27;;;;;;;3.13;0.55;;;;;;;;;;4984206;28;20046;-82
2023/04/02 07:39:55;;;;;;;1.92;0.65;;;;;;;;;;4969994;28;20046;-82
2023/04/02 07:42:27;;;;;;;4.78;0.70;;;;;;;;;;4984140;28;20042;-82
2023/04/02 07:44:55;;;;;;;1.48;0.73;;;;;;;;;;4985851;28;20053;-82
2023/04/02 07:47:23;;;;;;;1.95;0.60;;;;;;;;;;4986216;28;20074;-82
2023/04/02 07:49:53;;;;;;;1.52;0.80;;;;;;;;;;4986355;28;20042;-82
2023/04/02 07:52:21;;;;;;;2.22;0.40;;;;;;;;;;4983570;28;20045;-82
2023/04/02 07:54:49;;;;;;;3.22;0.88;;;;;;;;;;4983622;28;20070;-83
2023/04/02 07:57:17;;;;;;;3.35;0.70;;;;;;;;;;4973416;28;20051;-83
2023/04/02 07:59:47;;;;;;;2.20;1.33;;;;;;;;;;4982511;28;20049;-83
2023/04/02 08:02:19;;;;;;;0.85;0.35;;;;;;;;;;4987290;28;20065;-83
2023/04/02 08:04:48;;;;;;;4.47;0.88;;;;;;;;;;4984673;28;20145;-82
2023/04/02 08:07:21;;;;;;;6.28;1.10;;;;;;;;;;4984981;28;20122;-83
2023/04/02 08:09:49;;;;;;;6.63;0.73;;;;;;;;;;4970111;28;20052;-83
2023/04/02 08:12:17;;;;;;;4.13;0.63;;;;;;;;;;4984201;28;20042;-82
2023/04/02 08:14:49;;;;;;;0.20;0.15;;;;;;;;;;4985622;28;20046;-83
2023/04/02 08:17:17;;;;;;;2.35;0.90;;;;;;;;;;4979477;28;20127;-83
2023/04/02 08:19:45;;;;;;;0.75;0.38;;;;;;;;;;4984076;28;20096;-81
2023/04/02 08:22:21;;;;;;;2.25;0.90;;;;;;;;;;4979302;28;20120;-81
2023/04/02 08:24:49;;;;;;;5.28;1.25;;;;;;;;;;4981093;28;20070;-82
2023/04/02 08:27:17;;;;;;;5.55;1.73;;;;;;;;;;4971467;28;20041;-82
2023/04/02 08:29:45;;;;;;;1.13;0.47;;;;;;;;;;4982738;28;20418;-82
2023/04/02 08:32:16;;;;;;;3.97;0.70;;;;;;;;;;4966928;28;20050;-82
2023/04/02 08:34:45;;;;;;;8.27;3.80;;;;;;;;;;4985978;28;20072;-82
2023/04/02 08:37:13;;;;;;;2.08;0.70;;;;;;;;;;4979066;28;20046;-81
2023/04/02 08:39:41;;;;;;;1.73;0.40;;;;;;;;;;4972281;28;20046;-82
2023/04/02 08:42:26;;;;;;;3.22;1.23;;;;;;;;;;4974343;28;20062;-82
2023/04/02 08:45:13;;;;;;;2.17;0.47;;;;;;;;;;4988450;28;20045;-82
2023/04/02 08:47:56;;;;;;;2.78;0.50;;;;;;;;;;4975627;28;20495;-82
2023/04/02 08:50:38;;;;;;;2.30;0.68;;;;;;;;;;4989248;28;20153;-82
2023/04/02 08:53:18;;;;;;;1.83;0.63;;;;;;;;;;4971201;28;20119;-82
2023/04/02 08:56:16;;;;;;;2.08;0.50;;;;;;;;;;4989780;28;20080;-82
2023/04/02 08:58:55;;;;;;;0.85;0.32;;;;;;;;;;4989285;28;20045;-82
2023/04/02 09:01:33;;;;;;;2.38;0.60;;;;;;;;;;4987293;28;20416;-82
2023/04/02 09:04:04;;;;;;;2.88;1.00;;;;;;;;;;4986498;28;20492;-82
2023/04/02 09:06:37;;;;;;;3.45;0.65;;;;;;;;;;4988262;28;20035;-82
2023/04/02 09:09:05;;;;;;;1.42;0.32;;;;;;;;;;4986460;28;20053;-82
2023/04/02 09:11:40;;;;;;;2.28;0.65;;;;;;;;;;4987108;28;20100;-82
2023/04/02 09:14:18;;;;;;;1.60;0.50;;;;;;;;;;4986327;28;20046;-82
2023/04/02 09:16:54;;;;;;;2.35;0.40;;;;;;;;;;5003012;28;20077;-82
2023/04/02 09:19:36;;;;;;;3.28;0.47;;;;;;;;;;4987518;28;20045;-82
2023/04/02 09:22:16;;;;;;;3.03;0.80;;;;;;;;;;4988541;28;20050;-81
2023/04/02 09:25:15;;;;;;;2.92;0.50;;;;;;;;;;4983733;28;20669;-82
2023/04/02 09:28:10;;;;;;;2.72;0.90;;;;;;;;;;4999627;28;20122;-82
2023/04/02 09:30:56;;;;;;;4.20;0.90;;;;;;;;;;4987518;28;20050;-82
2023/04/02 09:33:46;;;;;;;2.00;0.55;;;;;;;;;;4969163;28;20043;-82
2023/04/02 09:36:35;;;;;;;2.20;0.90;;;;;;;;;;4999980;28;20058;-82
2023/04/02 09:39:27;;;;;;;6.22;0.90;;;;;;;;;;4982049;28;20034;-82
2023/04/02 09:42:05;;;;;;;8.60;2.58;;;;;;;;;;4983911;28;20054;-81
2023/04/02 09:44:33;;;;;;;8.05;1.75;;;;;;;;;;4985598;28;20044;-81
2023/04/02 09:47:23;;;;;;;5.75;2.03;;;;;;;;;;4983267;28;20050;-81
2023/04/02 09:50:21;;;;;;;5.35;0.95;;;;;;;;;;4987560;28;20066;-81
2023/04/02 09:52:50;;;;;;;1.40;0.52;;;;;;;;;;4987223;28;20358;-81
2023/04/02 09:55:41;;;;;;;2.35;0.82;;;;;;;;;;5001003;28;20034;-81
2023/04/02 09:58:14;;;;;;;2.50;0.70;;;;;;;;;;4986555;28;20505;-81
2023/04/02 10:00:51;;;;;;;10.23;2.35;;;;;;;;;;4970079;28;20512;-81
2023/04/02 10:03:31;;;;;;;4.00;0.98;;;;;;;;;;4984714;28;20130;-81
2023/04/02 10:06:10;;;;;;;2.47;0.57;;;;;;;;;;4987381;28;20042;-81
2023/04/02 10:08:41;;;;;;;1.85;0.60;;;;;;;;;;4987649;28;20062;-81
2023/04/02 10:11:34;;;;;;;2.38;0.43;;;;;;;;;;4988800;28;20040;-81
2023/04/02 10:14:27;;;;;;;1.73;0.20;;;;;;;;;;4987310;28;20419;-80
2023/04/02 10:17:04;;;;;;;0.80;0.22;;;;;;;;;;4986030;28;20042;-81
2023/04/02 10:19:55;;;;;;;7.47;0.82;;;;;;;;;;4984232;28;20057;-81
2023/04/02 10:22:23;;;;;;;2.40;0.70;;;;;;;;;;4981800;28;20050;-81
2023/04/02 10:25:18;;;;;;;3.25;0.90;;;;;;;;;;4962971;28;20042;-81
2023/04/02 10:27:58;;;;;;;3.72;1.05;;;;;;;;;;4985780;28;20093;-81
2023/04/02 10:43:36;;;;;;;;;;;;;;;;;;5104814;27;20422;-81
2023/04/02 10:46:41;;;;;;;2.08;0.75;;;;;;;;;;5102895;28;19928;-81
2023/04/02 10:49:18;;;;;;;1.60;0.50;;;;;;;;;;5106004;28;20036;-81
2023/04/02 10:52:12;;;;;;;2.83;0.77;;;;;;;;;;5105012;28;20043;-80
2023/04/02 10:54:46;;;;;;;2.22;0.63;;;;;;;;;;5104998;28;20040;-80
2023/04/02 10:57:21;;;;;;;1.00;0.43;;;;;;;;;;5100114;28;20052;-81
2023/04/02 11:00:06;;;;;;;6.70;1.38;;;;;;;;;;5104830;28;20050;-81
2023/04/02 11:02:38;;;;;;;2.85;0.73;;;;;;;;;;5104422;28;20063;-81
2023/04/02 11:05:15;;;;;;;5.43;1.45;;;;;;;;;;5105010;28;20115;-81
2023/04/02 11:08:18;;;;;;;3.15;0.90;;;;;;;;;;5105356;28;20042;-81
2023/04/02 11:10:51;;;;;;;8.95;1.30;;;;;;;;;;5063058;28;20049;-81
2023/04/02 11:13:22;;;;;;;1.27;0.40;;;;;;;;;;5062058;28;20052;-82
2023/04/02 11:15:55;;;;;;;3.80;0.98;;;;;;;;;;5058851;28;20051;-82
2023/04/02 11:18:34;;;;;;;3.47;1.17;;;;;;;;;;5061557;28;20140;-82
2023/04/02 11:21:28;;;;;;;1.33;0.40;;;;;;;;;;5055247;28;20436;-82
2023/04/02 11:24:01;;;;;;;1.65;0.90;;;;;;;;;;5062258;28;20037;-81
2023/04/02 11:26:37;;;;;;;1.15;0.40;;;;;;;;;;5057115;28;20093;-81
2023/04/02 11:29:18;;;;;;;2.45;0.70;;;;;;;;;;5061599;28;20463;-82
2023/04/02 11:31:45;;;;;;;3.25;0.93;;;;;;;;;;5058515;28;20053;-82
2023/04/02 11:34:40;;;;;;;1.85;0.32;;;;;;;;;;5062694;28;20040;-82
2023/04/02 11:37:29;;;;;;;2.53;0.52;;;;;;;;;;5061339;28;20964;-82
2023/04/02 11:39:58;;;;;;;1.88;0.47;;;;;;;;;;5061936;28;20049;-82
2023/04/02 11:42:32;;;;;;;0.60;0.28;;;;;;;;;;5043148;28;20475;-81
2023/04/02 11:47:58;;;;;;;8.85;1.05;;;;;;;;;;5086890;28;20036;-81
2023/04/02 11:50:32;;;;;;;2.03;0.60;;;;;;;;;;5090387;28;20078;-81
2023/04/02 11:53:11;;;;;;;4.15;0.90;;;;;;;;;;5083784;28;21902;-81
2023/04/02 11:56:04;;;;;;;1.35;0.40;;;;;;;;;;5085826;28;20048;-81
2023/04/02 11:59:03;;;;;;;3.25;0.88;;;;;;;;;;5086618;28;20052;-81
2023/04/02 12:01:57;;;;;;;2.78;0.47;;;;;;;;;;5087164;28;20046;-81
2023/04/02 12:04:57;;;;;;;2.15;0.57;;;;;;;;;;5087747;28;20044;-81
2023/04/02 12:07:36;;;;;;;3.40;0.65;;;;;;;;;;5090486;28;20565;-81
2023/04/02 12:10:27;;;;;;;0.75;0.43;;;;;;;;;;5087693;28;20043;-81
2023/04/02 12:13:40;;;;;;;1.40;0.32;;;;;;;;;;5088301;28;20487;-81
2023/04/02 12:16:13;;;;;;;5.68;0.90;;;;;;;;;;5086518;28;20449;-81
2023/04/02 12:18:43;;;;;;;3.65;0.60;;;;;;;;;;5090414;28;20124;-81
2023/04/02 12:21:16;;;;;;;2.65;1.20;;;;;;;;;;5090712;28;20044;-81
2023/04/02 12:23:46;;;;;;;4.35;0.60;;;;;;;;;;5088684;28;20048;-81
2023/04/02 12:26:30;;;;;;;2.08;0.45;;;;;;;;;;5083542;28;20450;-80
2023/04/02 12:29:24;;;;;;;2.60;0.75;;;;;;;;;;5089236;28;20123;-81
2023/04/02 12:31:58;;;;;;;1.55;0.63;;;;;;;;;;5099180;28;20035;-81
2023/04/02 12:34:31;;;;;;;3.90;0.70;;;;;;;;;;5084666;28;20093;-80
2023/04/02 12:37:02;;;;;;;2.80;0.60;;;;;;;;;;5087925;28;20036;-79
2023/04/02 12:39:31;;;;;;;3.58;1.25;;;;;;;;;;5066969;28;20048;-82
2023/04/02 12:41:59;;;;;;;3.28;0.70;;;;;;;;;;5088093;28;20036;-81
2023/04/02 12:44:57;;;;;;;3.38;0.85;;;;;;;;;;5089952;28;20458;-81
2023/04/02 12:47:31;;;;;;;1.73;0.57;;;;;;;;;;5087924;28;20507;-81
2023/04/02 12:50:00;;;;;;;1.88;0.40;;;;;;;;;;5089681;28;20039;-81
2023/04/02 12:52:29;;;;;;;2.45;0.68;;;;;;;;;;5088254;28;20380;-81
2023/04/02 12:54:59;;;;;;;1.67;0.80;;;;;;;;;;5101334;28;20067;-81
2023/04/02 12:57:30;;;;;;;4.20;0.80;;;;;;;;;;5086374;28;20040;-81
2023/04/02 13:00:21;;;;;;;2.20;0.70;;;;;;;;;;5090858;28;20453;-81
2023/04/02 13:03:16;;;;;;;0.80;0.40;;;;;;;;;;5081236;28;20060;-81
2023/04/02 13:05:55;;;;;;;3.03;0.73;;;;;;;;;;5086218;28;20052;-81
2023/04/02 13:08:36;;;;;;;1.48;0.47;;;;;;;;;;5081850;28;20123;-81
2023/04/02 13:11:10;;;;;;;3.10;0.57;;;;;;;;;;5088358;28;20097;-81
2023/04/02 13:13:39;;;;;;;2.55;0.60;;;;;;;;;;5084529;28;20035;-81
2023/04/02 13:16:16;;;;;;;1.42;0.60;;;;;;;;;;5083801;28;20040;-81
2023/04/02 13:18:47;;;;;;;2.55;0.75;;;;;;;;;;5082891;28;20054;-81
2023/04/02 13:21:39;;;;;;;1.55;0.50;;;;;;;;;;5089126;28;20032;-81
2023/04/02 13:24:22;;;;;;;0.98;0.38;;;;;;;;;;5082866;28;20067;-81
2023/04/02 13:27:15;;;;;;;3.42;0.60;;;;;;;;;;5088468;28;20408;-81
2023/04/02 13:29:51;;;;;;;2.97;0.70;;;;;;;;;;5084192;28;20042;-81
2023/04/02 13:32:19;;;;;;;2.72;0.90;;;;;;;;;;5087013;28;20036;-81
2023/04/02 13:34:53;;;;;;;2.72;0.55;;;;;;;;;;5086104;28;20122;-79
2023/04/02 13:37:21;;;;;;;0.80;0.35;;;;;;;;;;5089055;28;20526;-81
2023/04/02 13:39:49;;;;;;;1.55;0.55;;;;;;;;;;5085434;28;20142;-79
2023/04/02 13:42:42;;;;;;;1.98;0.85;;;;;;;;;;5088432;28;20492;-81
2023/04/02 13:45:27;;;;;;;4.78;0.60;;;;;;;;;;5086693;28;20043;-81
2023/04/02 13:48:24;;;;;;;5.75;1.00;;;;;;;;;;5086502;28;20097;-81
2023/04/02 13:51:19;;;;;;;4.30;1.80;;;;;;;;;;5086263;28;21866;-81
2023/04/02 13:54:24;;;;;;;3.08;0.80;;;;;;;;;;5088049;28;20168;-80
2023/04/02 13:56:54;;;;;;;3.15;0.70;;;;;;;;;;5083276;28;20036;-80
2023/04/02 13:59:24;;;;;;;3.00;0.70;;;;;;;;;;5083960;28;20036;-81
2023/04/02 14:02:05;;;;;;;3.17;0.85;;;;;;;;;;5083721;28;20553;-80
2023/04/02 14:04:38;;;;;;;2.58;0.93;;;;;;;;;;5086361;28;20048;-81
2023/04/02 14:07:37;;;;;;;3.38;1.13;;;;;;;;;;5085968;28;20036;-81
2023/04/02 14:10:37;;;;;;;4.78;1.08;;;;;;;;;;5087391;28;20043;-81
2023/04/02 14:13:19;;;;;;;2.47;0.85;;;;;;;;;;5088109;28;20089;-81
2023/04/02 14:16:02;;;;;;;5.07;0.95;;;;;;;;;;5085887;28;20040;-81
2023/04/02 14:19:08;;;;;;;2.25;0.68;;;;;;;;;;5084471;28;20586;-81
2023/04/02 14:21:48;;;;;;;4.38;1.90;;;;;;;;;;5086594;28;20032;-80
2023/04/02 14:24:39;;;;;;;3.28;1.02;;;;;;;;;;5084070;28;20032;-80
2023/04/02 14:27:37;;;;;;;1.35;0.60;;;;;;;;;;5085016;28;20577;-80
2023/04/02 14:30:16;;;;;;;2.28;0.63;;;;;;;;;;5084853;28;20032;-80
2023/04/02 14:33:12;;;;;;;4.20;0.85;;;;;;;;;;5081939;28;20032;-80
2023/04/02 14:36:28;;;;;;;3.15;0.80;;;;;;;;;;5084687;28;20072;-81
2023/04/02 14:39:39;;;;;;;4.53;2.42;;;;;;;;;;5080113;28;20487;-82
2023/04/02 14:42:17;;;;;;;6.32;1.02;;;;;;;;;;5083471;28;20123;-81
2023/04/02 14:44:53;;;;;;;5.32;0.93;;;;;;;;;;5086730;28;20412;-82
2023/04/02 14:47:37;;;;;;;4.45;1.05;;;;;;;;;;5084599;28;20068;-81
2023/04/02 14:50:11;;;;;;;3.33;1.35;;;;;;;;;;5087236;28;20446;-81
2023/04/02 14:52:43;;;;;;;3.35;0.90;;;;;;;;;;5099218;28;20135;-82
2023/04/02 14:55:39;;;;;;;4.40;1.38;;;;;;;;;;5087166;28;20059;-81
2023/04/02 14:58:23;;;;;;;4.63;1.10;;;;;;;;;;5087766;28;20461;-82
2023/04/02 15:00:59;;;;;;;3.35;0.80;;;;;;;;;;5088095;28;20052;-81
2023/04/02 15:04:04;;;;;;;9.10;0.98;;;;;;;;;;5087589;28;20035;-81
2023/04/02 15:06:37;;;;;;;4.30;1.15;;;;;;;;;;5086850;28;20059;-81
2023/04/02 15:09:29;;;;;;;3.72;1.08;;;;;;;;;;5086705;28;20064;-81
2023/04/02 15:12:11;;;;;;;7.68;1.10;;;;;;;;;;5078708;28;20086;-81
2023/04/02 15:14:47;;;;;;;4.47;0.90;;;;;;;;;;5101214;28;20044;-81
2023/04/02 15:17:19;;;;;;;2.53;0.95;;;;;;;;;;5084068;28;20052;-81
2023/04/02 15:20:22;;;;;;;6.40;1.00;;;;;;;;;;5107329;28;20400;-81
2023/04/02 15:23:05;;;;;;;2.05;0.93;;;;;;;;;;5088746;28;20075;-80
2023/04/02 15:25:44;;;;;;;5.60;1.92;;;;;;;;;;5084544;28;20484;-81
2023/04/02 15:28:28;;;;;;;5.05;1.08;;;;;;;;;;5091936;28;20059;-80
2023/04/02 15:30:58;;;;;;;4.53;1.73;;;;;;;;;;5101328;28;20068;-81
2023/04/02 15:33:40;;;;;;;4.13;0.90;;;;;;;;;;5088701;28;20040;-81
2023/04/02 15:36:28;;;;;;;3.10;0.80;;;;;;;;;;5090854;28;20123;-81
2023/04/02 15:39:14;;;;;;;2.90;1.10;;;;;;;;;;5088369;28;20040;-81
2023/04/02 15:42:08;;;;;;;2.33;0.70;;;;;;;;;;5089509;28;20032;-81
2023/04/02 15:44:44;;;;;;;3.85;1.30;;;;;;;;;;5086983;28;20043;-81
2023/04/02 15:47:51;;;;;;;2.33;0.90;;;;;;;;;;5085396;28;20400;-81
2023/04/02 15:50:44;;;;;;;7.95;1.10;;;;;;;;;;5088914;28;20483;-81
2023/04/02 15:54:18;;;;;;;7.03;2.05;;;;;;;;;;5087863;28;20506;-81
2023/04/02 15:57:10;;;;;;;1.45;0.65;;;;;;;;;;5064243;28;20052;-81
2023/04/02 16:00:02;;;;;;;2.80;0.80;;;;;;;;;;5069718;28;20045;-81
2023/04/02 16:02:57;;;;;;;1.88;0.63;;;;;;;;;;5067715;28;20128;-81
2023/04/02 16:05:34;;;;;;;4.88;1.00;;;;;;;;;;5051814;28;20041;-81
2023/04/02 16:08:35;;;;;;;2.38;0.80;;;;;;;;;;5065620;28;20144;-81
2023/04/02 16:11:10;;;;;;;2.58;0.80;;;;;;;;;;5069236;28;20051;-81
2023/04/02 16:13:43;;;;;;;1.67;0.73;;;;;;;;;;5062943;28;20703;-81
2023/04/02 16:16:34;;;;;;;1.65;0.70;;;;;;;;;;5066316;28;20048;-81
2023/04/02 16:19:10;;;;;;;5.43;0.90;;;;;;;;;;5066899;28;20063;-82
2023/04/02 16:22:27;;;;;;;2.20;0.45;;;;;;;;;;5063480;28;20051;-81
2023/04/02 16:25:24;;;;;;;4.55;0.82;;;;;;;;;;5068555;28;20044;-81
2023/04/02 16:28:20;;;;;;;1.38;0.68;;;;;;;;;;5033583;28;20045;-81
2023/04/02 16:31:11;;;;;;;2.90;0.32;;;;;;;;;;5049907;28;20098;-81
2023/04/02 16:34:01;;;;;;;1.48;0.52;;;;;;;;;;5080009;28;20076;-81
2023/04/02 16:36:51;;;;;;;3.03;1.25;;;;;;;;;;5084660;28;20036;-81
2023/04/02 16:40:10;;;;;;;1.55;0.77;;;;;;;;;;5088897;28;20411;-81
2023/04/02 16:43:01;;;;;;;2.42;0.70;;;;;;;;;;5088943;28;20040;-82
2023/04/02 16:46:14;;;;;;;3.50;0.80;;;;;;;;;;5085577;28;20509;-80